Time;durP1;ratioP1;P1;durP2;ratioP2;P2;SDS_P1;SDS_P2;PMS_P1;PMS_P2;Temp;Humidity;BMP_temperature;BMP_pressure;BME280_temperature;BME280_humidity;BME280_pressure;Samples;Min_cycle;Max_cycle;Signal;HPM_P1;HPM_P2
2021/04/10 00:00:27;;;;;;;209.67;104.05;;;;;;;0.08;67.39;95055.95;1731680;82;21937;-57
2021/04/10 00:02:56;;;;;;;198.38;96.20;;;;;;;0.15;67.25;95057.38;1731761;82;21165;-57
2021/04/10 00:05:24;;;;;;;164.52;83.97;;;;;;;0.13;66.89;95051.58;1719875;83;21150;-57
2021/04/10 00:07:52;;;;;;;211.82;98.75;;;;;;;0.09;66.91;95056.74;1731765;82;21503;-57
2021/04/10 00:10:22;;;;;;;203.55;100.95;;;;;;;0.10;66.97;95055.03;1731751;82;21060;-57
2021/04/10 00:12:49;;;;;;;194.13;100.45;;;;;;;0.07;67.29;95050.34;1731774;82;21090;-57
2021/04/10 00:15:19;;;;;;;219.68;106.60;;;;;;;0.04;67.49;95049.74;1731713;82;21099;-58
2021/04/10 00:17:48;;;;;;;209.27;100.75;;;;;;;0.00;67.71;95046.23;1731740;82;21208;-57
2021/04/10 00:20:18;;;;;;;218.00;104.30;;;;;;;-0.06;67.75;95051.59;1719734;83;21186;-58
2021/04/10 00:22:46;;;;;;;203.65;98.35;;;;;;;-0.15;67.91;95052.45;1731704;82;21189;-57
2021/04/10 00:25:15;;;;;;;211.28;103.97;;;;;;;-0.20;68.05;95056.85;1731778;81;21134;-56
2021/04/10 00:27:45;;;;;;;237.45;108.65;;;;;;;-0.24;68.19;95048.70;1731764;82;21166;-57
2021/04/10 00:30:15;;;;;;;224.98;109.63;;;;;;;-0.21;68.45;95048.54;1731725;82;21220;-56
2021/04/10 00:32:43;;;;;;;243.50;114.85;;;;;;;-0.14;68.38;95060.77;1731668;82;21197;-56
2021/04/10 00:35:12;;;;;;;214.78;99.67;;;;;;;-0.14;68.21;95052.66;1719702;83;21063;-56
2021/04/10 00:37:39;;;;;;;221.05;107.83;;;;;;;-0.17;68.48;95052.05;1727814;82;21109;-57
2021/04/10 00:40:09;;;;;;;228.98;103.12;;;;;;;-0.15;68.54;95053.24;1733737;82;21151;-57
2021/04/10 00:42:37;;;;;;;198.15;99.13;;;;;;;-0.16;68.60;95053.60;1726162;83;21204;-57
2021/04/10 00:45:08;;;;;;;177.02;91.12;;;;;;;-0.22;68.64;95054.51;1726098;81;21147;-57
2021/04/10 00:47:36;;;;;;;175.53;83.95;;;;;;;-0.26;68.73;95061.05;1726220;83;21139;-57
2021/04/10 00:50:07;;;;;;;170.55;86.00;;;;;;;-0.27;68.86;95062.17;1726124;83;21170;-57
2021/04/10 00:52:35;;;;;;;160.85;80.85;;;;;;;-0.29;68.72;95059.85;1726180;83;21180;-56
2021/04/10 00:55:06;;;;;;;168.80;85.20;;;;;;;-0.24;68.60;95056.05;1726135;83;21211;-57
2021/04/10 00:57:34;;;;;;;177.10;86.95;;;;;;;-0.23;68.29;95062.41;1726116;83;21162;-57
2021/04/10 01:00:07;;;;;;;171.98;82.45;;;;;;;-0.24;68.43;95051.98;1726135;83;21071;-56
2021/04/10 01:02:35;;;;;;;186.37;82.17;;;;;;;-0.20;68.30;95051.45;1726245;83;21127;-58
2021/04/10 01:05:05;;;;;;;150.85;78.67;;;;;;;-0.20;68.08;95052.20;1726105;81;21134;-58
2021/04/10 01:07:33;;;;;;;163.32;81.78;;;;;;;-0.17;68.16;95049.34;1726094;83;21229;-58
2021/04/10 01:10:01;;;;;;;156.72;77.47;;;;;;;-0.06;68.00;95048.89;1726071;83;21115;-57
2021/04/10 01:13:08;;;;;;;159.57;77.40;;;;;;;-0.02;67.73;95044.48;1726163;83;21460;-56
2021/04/10 01:16:06;;;;;;;169.97;80.38;;;;;;;0.05;67.44;95044.53;1726084;83;21210;-56
2021/04/10 01:19:18;;;;;;;179.00;88.67;;;;;;;0.05;67.30;95045.89;1726137;81;21143;-58
2021/04/10 01:22:07;;;;;;;174.77;87.53;;;;;;;-0.02;67.55;95041.78;1725945;83;21216;-57
2021/04/10 01:24:44;;;;;;;171.15;84.13;;;;;;;-0.20;67.86;95047.39;1699704;83;21158;-59
2021/04/10 01:27:33;;;;;;;150.05;74.92;;;;;;;-0.28;68.24;95049.80;1724885;83;21217;-58
2021/04/10 01:30:10;;;;;;;162.75;78.55;;;;;;;-0.30;68.49;95048.84;1726083;83;21082;-57
2021/04/10 01:32:44;;;;;;;154.25;73.52;;;;;;;-0.28;68.46;95049.24;1726172;83;21079;-56
2021/04/10 01:35:14;;;;;;;161.28;81.35;;;;;;;-0.20;68.38;95053.56;1725291;83;21499;-58
2021/04/10 01:37:56;;;;;;;151.42;70.72;;;;;;;-0.17;68.11;95041.23;1726044;83;21107;-58
2021/04/10 01:40:29;;;;;;;148.47;74.00;;;;;;;-0.16;68.18;95050.34;1731331;82;21146;-57
2021/04/10 01:42:57;;;;;;;146.62;73.55;;;;;;;-0.16;68.00;95046.84;1729847;82;21095;-57
2021/04/10 01:45:26;;;;;;;151.05;75.40;;;;;;;-0.17;68.18;95053.41;1729760;83;21173;-56
2021/04/10 01:47:58;;;;;;;152.97;73.40;;;;;;;-0.10;68.27;95049.41;1729724;82;21198;-56
2021/04/10 01:50:26;;;;;;;145.95;74.82;;;;;;;-0.15;68.13;95052.45;1706934;83;21153;-57
2021/04/10 01:52:54;;;;;;;132.20;70.55;;;;;;;-0.27;68.48;95058.11;1729644;83;21158;-56
2021/04/10 01:55:24;;;;;;;138.70;67.75;;;;;;;-0.28;69.03;95055.20;1729699;82;21607;-56
2021/04/10 01:57:54;;;;;;;100.82;52.90;;;;;;;-0.26;68.79;95054.29;1729784;83;21143;-57
2021/04/10 02:00:25;;;;;;;101.65;51.30;;;;;;;-0.29;68.58;95048.25;1729739;83;21378;-56
2021/04/10 02:02:55;;;;;;;91.95;48.65;;;;;;;-0.34;68.43;95044.53;1729818;83;21539;-58
2021/04/10 02:05:24;;;;;;;93.85;51.25;;;;;;;-0.35;68.34;95041.63;1729748;82;21190;-56
2021/04/10 02:07:54;;;;;;;130.25;63.13;;;;;;;-0.34;68.39;95036.43;1706895;83;21127;-57
2021/04/10 02:10:24;;;;;;;157.20;74.50;;;;;;;-0.42;68.70;95042.92;1707266;83;21194;-56
2021/04/10 02:13:02;;;;;;;165.22;81.17;;;;;;;-0.56;69.15;95036.00;1873671;75;22661;-57
2021/04/10 02:15:32;;;;;;;159.40;79.42;;;;;;;-0.70;69.60;95039.33;1839618;78;21070;-56
2021/04/10 02:18:03;;;;;;;129.03;62.40;;;;;;;-0.72;69.89;95039.48;1811367;78;21137;-57
2021/04/10 02:20:32;;;;;;;113.72;59.27;;;;;;;-0.74;70.01;95042.54;1841539;78;20971;-55
2021/04/10 02:23:00;;;;;;;100.02;50.20;;;;;;;-0.79;69.85;95035.36;1841535;78;20915;-57
2021/04/10 02:25:32;;;;;;;105.58;57.13;;;;;;;-0.80;69.94;95041.91;1841517;78;21053;-57
2021/04/10 02:28:01;;;;;;;110.25;57.88;;;;;;;-0.75;69.85;95046.39;1841573;77;21072;-57
2021/04/10 02:30:29;;;;;;;136.57;67.32;;;;;;;-0.74;70.09;95048.53;1841520;78;21148;-57
2021/04/10 02:33:04;;;;;;;133.57;67.62;;;;;;;-0.68;70.01;95049.19;1841449;78;20994;-57
2021/04/10 02:35:41;;;;;;;127.75;66.28;;;;;;;-0.61;70.04;95047.15;1818394;78;21092;-57
2021/04/10 02:38:09;;;;;;;114.00;56.53;;;;;;;-0.53;69.87;95044.16;1779621;79;21584;-58
2021/04/10 02:40:39;;;;;;;98.82;48.78;;;;;;;-0.43;69.54;95048.89;1808475;79;21572;-58
2021/04/10 02:43:12;;;;;;;83.45;45.52;;;;;;;-0.45;69.01;95044.42;1808739;79;21197;-58
2021/04/10 02:45:41;;;;;;;98.40;47.58;;;;;;;-0.50;68.89;95048.81;1808697;79;21478;-57
2021/04/10 02:48:16;;;;;;;180.15;85.10;;;;;;;-0.49;68.89;95045.53;1808507;79;21073;-56
2021/04/10 02:50:44;;;;;;;151.40;75.28;;;;;;;-0.46;69.27;95045.58;1807251;79;21061;-56
2021/04/10 02:53:13;;;;;;;113.50;62.00;;;;;;;-0.44;69.54;95045.98;1808574;79;21057;-58
2021/04/10 02:55:46;;;;;;;118.60;60.17;;;;;;;-0.40;69.62;95044.67;1808529;79;20990;-57
2021/04/10 02:58:15;;;;;;;;;;;;;;;-0.35;69.28;95044.34;1810814;79;21176;-58
2021/04/10 03:00:46;;;;;;;123.02;61.85;;;;;;;-0.30;69.34;95050.19;1808503;79;20217;-56
2021/04/10 03:03:16;;;;;;;113.80;58.73;;;;;;;-0.26;69.02;95055.64;1808489;78;21132;-58
2021/04/10 03:05:45;;;;;;;112.25;57.35;;;;;;;-0.26;68.97;95045.59;1808460;78;21616;-58
2021/04/10 03:08:21;;;;;;;124.07;61.37;;;;;;;-0.27;69.17;95053.50;1808511;79;21184;-59
2021/04/10 03:10:52;;;;;;;121.05;63.17;;;;;;;-0.39;68.99;95049.69;1808504;79;21526;-58
2021/04/10 03:13:21;;;;;;;149.77;69.75;;;;;;;-0.56;69.19;95052.22;1800519;78;20969;-59
2021/04/10 03:15:53;;;;;;;156.87;75.60;;;;;;;-0.65;69.61;95055.77;1785211;79;21505;-57
2021/04/10 03:18:23;;;;;;;135.57;72.20;;;;;;;-0.72;69.54;95047.59;1800869;79;21496;-58
2021/04/10 03:20:52;;;;;;;133.00;66.87;;;;;;;-0.85;69.87;95052.45;1785400;79;21485;-57
2021/04/10 03:23:21;;;;;;;144.37;71.30;;;;;;;-0.85;70.44;95043.56;1784499;79;21100;-58
2021/04/10 03:25:50;;;;;;;101.62;56.23;;;;;;;-0.69;70.54;95050.90;1799974;78;21104;-57
2021/04/10 03:28:19;;;;;;;86.50;49.03;;;;;;;-0.58;69.91;95047.17;1784756;79;21093;-58
2021/04/10 03:30:48;;;;;;;103.38;52.27;;;;;;;-0.58;69.42;95055.27;1759287;79;21155;-57
2021/04/10 03:33:18;;;;;;;96.30;51.73;;;;;;;-0.62;69.28;95055.81;1784490;79;21192;-57
2021/04/10 03:35:47;;;;;;;121.30;59.05;;;;;;;-0.60;69.13;95060.86;1799812;78;21140;-57
2021/04/10 03:38:15;;;;;;;109.48;55.52;;;;;;;-0.56;69.27;95053.56;1784940;79;21183;-57
2021/04/10 03:40:44;;;;;;;110.35;54.95;;;;;;;-0.44;69.36;95057.38;1799943;79;21077;-57
2021/04/10 03:43:12;;;;;;;115.15;53.08;;;;;;;-0.31;69.08;95057.30;1799953;79;21065;-57
2021/04/10 03:45:42;;;;;;;124.87;60.00;;;;;;;-0.26;68.67;95062.39;1799824;78;21348;-57
2021/04/10 03:48:15;;;;;;;130.57;65.45;;;;;;;-0.26;68.54;95063.75;1799639;78;21104;-57
2021/04/10 03:50:44;;;;;;;126.40;65.22;;;;;;;-0.32;68.91;95060.59;1794903;79;28729;-56
2021/04/10 03:53:12;;;;;;;89.47;48.52;;;;;;;-0.34;69.25;95058.05;1799888;79;21076;-57
2021/04/10 03:55:40;;;;;;;66.82;39.78;;;;;;;-0.39;69.02;95063.80;1799943;79;21053;-57
2021/04/10 03:58:09;;;;;;;77.32;45.28;;;;;;;-0.45;68.99;95059.88;1799938;79;21196;-56
2021/04/10 04:00:39;;;;;;;110.28;52.75;;;;;;;-0.40;69.02;95057.59;1784710;79;21132;-57
2021/04/10 04:03:07;;;;;;;107.72;54.23;;;;;;;-0.33;68.70;95052.28;1799908;79;21221;-57
2021/04/10 04:05:35;;;;;;;108.32;54.88;;;;;;;-0.29;68.73;95062.55;1799917;79;21168;-56
2021/04/10 04:08:05;;;;;;;139.43;67.90;;;;;;;-0.30;68.90;95066.97;1799940;79;21064;-57
2021/04/10 04:10:34;;;;;;;146.47;65.35;;;;;;;-0.35;69.21;95066.75;1799911;79;21206;-56
2021/04/10 04:13:03;;;;;;;136.05;63.83;;;;;;;-0.35;69.49;95063.25;1805695;79;21105;-56
2021/04/10 04:15:31;;;;;;;151.87;68.65;;;;;;;-0.30;69.52;95066.97;1807943;79;21530;-57
2021/04/10 04:17:59;;;;;;;207.00;95.90;;;;;;;-0.30;69.65;95065.61;1807846;78;21065;-56
2021/04/10 04:20:27;;;;;;;189.75;93.22;;;;;;;-0.27;69.54;95072.42;1807824;79;21109;-58
2021/04/10 04:22:56;;;;;;;204.03;92.78;;;;;;;-0.32;69.63;95063.86;1807771;79;21316;-57
2021/04/10 04:25:24;;;;;;;181.47;89.72;;;;;;;-0.32;70.09;95071.97;1779164;79;21080;-56
2021/04/10 04:27:53;;;;;;;192.62;94.25;;;;;;;-0.16;70.28;95072.52;1807845;79;21069;-59
2021/04/10 04:30:23;;;;;;;181.43;87.78;;;;;;;-0.04;69.90;95070.92;1807859;79;21057;-57
2021/04/10 04:32:51;;;;;;;228.22;97.45;;;;;;;0.01;69.76;95070.02;1807916;78;21078;-58
2021/04/10 04:35:19;;;;;;;249.82;112.40;;;;;;;0.13;69.84;95070.51;1807694;78;21350;-56
2021/04/10 04:37:47;;;;;;;221.95;103.55;;;;;;;0.25;69.63;95072.16;1807744;79;21228;-57
2021/04/10 04:40:16;;;;;;;177.78;85.17;;;;;;;0.26;69.49;95065.00;1807816;79;21152;-57
2021/04/10 04:42:44;;;;;;;183.97;82.20;;;;;;;0.30;69.55;95069.89;1807828;79;21051;-57
2021/04/10 04:45:12;;;;;;;149.77;77.85;;;;;;;0.32;69.35;95066.79;1807831;79;21504;-57
2021/04/10 04:47:40;;;;;;;190.55;92.27;;;;;;;0.30;69.23;95071.23;1807823;79;21344;-57
2021/04/10 04:50:10;;;;;;;157.25;88.75;;;;;;;0.32;69.22;95066.79;1807716;79;21173;-59
2021/04/10 04:52:38;;;;;;;160.30;81.90;;;;;;;0.37;69.18;95064.52;1807813;79;21136;-57
2021/04/10 04:55:08;;;;;;;147.50;80.32;;;;;;;0.53;68.72;95077.22;1807768;79;21137;-57
2021/04/10 04:57:35;;;;;;;131.05;71.90;;;;;;;0.65;68.50;95072.08;1807810;79;21164;-56
2021/04/10 05:00:05;;;;;;;157.85;85.92;;;;;;;0.76;68.19;95073.70;1807807;78;21346;-58
2021/04/10 05:02:33;;;;;;;169.80;88.67;;;;;;;0.85;68.01;95071.45;1807701;79;21483;-57
2021/04/10 05:05:01;;;;;;;136.12;79.10;;;;;;;1.02;67.93;95073.50;1807780;79;21094;-57
2021/04/10 05:07:28;;;;;;;109.78;59.90;;;;;;;1.22;67.50;95077.47;1807779;79;21161;-56
2021/04/10 05:09:57;;;;;;;85.15;43.80;;;;;;;1.40;66.87;95078.90;1807795;78;21144;-57
2021/04/10 05:12:26;;;;;;;66.67;37.55;;;;;;;1.50;66.06;95074.88;1807607;79;21383;-57
2021/04/10 05:14:54;;;;;;;45.15;23.85;;;;;;;1.53;65.59;95078.17;1807693;79;21073;-57
2021/04/10 05:17:22;;;;;;;49.50;25.12;;;;;;;1.61;64.98;95079.77;1807868;78;21069;-56
2021/04/10 05:19:51;;;;;;;48.63;25.05;;;;;;;1.72;64.57;95073.03;1807779;79;21070;-56
2021/04/10 05:22:19;;;;;;;36.70;18.27;;;;;;;1.77;64.23;95084.29;1807787;79;21116;-56
2021/04/10 05:24:47;;;;;;;30.72;15.10;;;;;;;1.84;63.67;95080.23;1807742;79;21321;-55
2021/04/10 05:27:15;;;;;;;37.98;22.35;;;;;;;1.97;63.32;95078.72;1807679;79;21937;-56
2021/04/10 05:29:43;;;;;;;51.90;25.35;;;;;;;2.13;62.92;95083.22;1807732;78;21215;-56
2021/04/10 05:32:12;;;;;;;49.75;30.60;;;;;;;2.18;62.80;95082.23;1807670;79;21069;-56
2021/04/10 05:34:40;;;;;;;42.30;25.10;;;;;;;2.28;62.68;95077.41;1807693;78;21104;-57
2021/04/10 05:37:08;;;;;;;49.58;26.93;;;;;;;2.45;62.14;95075.30;1807785;78;21573;-57
2021/04/10 05:39:36;;;;;;;47.27;28.30;;;;;;;2.60;61.46;95072.00;1807613;79;21850;-57
2021/04/10 05:42:09;;;;;;;55.03;27.35;;;;;;;2.73;61.39;95077.23;1807673;79;21169;-60
2021/04/10 05:44:36;;;;;;;59.60;29.48;;;;;;;2.81;61.44;95079.56;1779678;79;21157;-57
2021/04/10 05:47:05;;;;;;;54.15;25.62;;;;;;;3.01;61.16;95073.12;1807752;79;21068;-57
2021/04/10 05:49:36;;;;;;;53.38;26.95;;;;;;;3.21;60.52;95076.98;1779842;79;22269;-56
2021/04/10 05:52:05;;;;;;;57.83;29.40;;;;;;;3.29;60.07;95075.22;1807760;78;21172;-57
2021/04/10 05:54:33;;;;;;;77.80;31.23;;;;;;;3.33;59.77;95081.98;1778559;79;21074;-59
2021/04/10 05:57:03;;;;;;;51.50;29.12;;;;;;;3.40;59.64;95078.67;1807838;79;21061;-58
2021/04/10 05:59:31;;;;;;;54.90;28.80;;;;;;;3.48;59.38;95081.57;1807854;79;21081;-58
2021/04/10 06:01:59;;;;;;;99.00;39.30;;;;;;;3.58;59.04;95080.17;1807754;79;21407;-58
2021/04/10 06:04:27;;;;;;;73.60;36.40;;;;;;;3.68;59.03;95072.54;1779003;79;21564;-57
2021/04/10 06:06:55;;;;;;;59.85;32.50;;;;;;;3.90;59.50;95069.91;1807691;79;21160;-58
2021/04/10 06:09:23;;;;;;;79.25;39.10;;;;;;;4.16;59.57;95072.11;1807701;79;21542;-57
2021/04/10 06:11:51;;;;;;;77.12;38.35;;;;;;;4.34;59.85;95071.98;1807709;79;21113;-57
2021/04/10 06:14:20;;;;;;;50.67;29.18;;;;;;;4.53;59.48;95077.70;1807709;79;21384;-59
2021/04/10 06:16:50;;;;;;;71.62;35.68;;;;;;;4.76;58.80;95075.78;1807671;78;21008;-59
2021/04/10 06:19:19;;;;;;;60.80;32.65;;;;;;;4.94;58.10;95067.63;1807740;79;21097;-59
2021/04/10 06:21:47;;;;;;;54.55;31.60;;;;;;;5.18;57.59;95076.16;1807777;79;21180;-58
2021/04/10 06:24:15;;;;;;;43.35;28.95;;;;;;;5.39;56.82;95071.88;1807720;78;21168;-58
2021/04/10 06:26:43;;;;;;;37.20;21.90;;;;;;;5.56;55.43;95067.58;1807730;79;21200;-57
2021/04/10 06:29:12;;;;;;;46.08;24.12;;;;;;;5.72;54.45;95068.36;1807633;79;21077;-58
2021/04/10 06:31:40;;;;;;;55.78;25.57;;;;;;;5.77;53.64;95061.11;1807673;79;21053;-58
2021/04/10 06:34:08;;;;;;;49.75;23.57;;;;;;;5.77;53.15;95062.48;1807670;78;21132;-57
2021/04/10 06:36:37;;;;;;;37.75;22.05;;;;;;;5.81;52.79;95056.41;1807708;78;21058;-58
2021/04/10 06:39:05;;;;;;;39.25;24.07;;;;;;;5.81;52.46;95050.95;1807671;78;21393;-58
2021/04/10 06:41:39;;;;;;;39.25;21.80;;;;;;;5.77;52.41;95051.55;1807654;78;21094;-60
2021/04/10 06:44:08;;;;;;;35.00;21.23;;;;;;;5.84;52.41;95054.22;1779506;79;21121;-56
2021/04/10 06:46:37;;;;;;;56.70;29.35;;;;;;;5.89;52.40;95049.08;1779112;79;21614;-59
2021/04/10 06:49:06;;;;;;;60.23;26.75;;;;;;;5.89;52.62;95049.08;1807718;79;21076;-58
2021/04/10 06:51:37;;;;;;;55.28;27.10;;;;;;;5.95;52.38;95054.87;1807606;79;21199;-58
2021/04/10 06:54:07;;;;;;;62.62;29.90;;;;;;;5.98;52.25;95052.68;1807617;79;21184;-58
2021/04/10 06:56:37;;;;;;;57.33;28.40;;;;;;;5.98;52.16;95060.88;1807694;79;21094;-57
2021/04/10 06:59:37;;;;;;;69.40;30.70;;;;;;;5.97;52.29;95049.77;1807935;78;21157;-57
2021/04/10 07:02:10;;;;;;;64.60;30.85;;;;;;;5.98;52.32;95048.58;1807829;79;21151;-58
2021/04/10 07:04:39;;;;;;;72.27;31.17;;;;;;;6.05;52.26;95049.84;1807785;79;21189;-57
2021/04/10 07:07:10;;;;;;;60.25;28.15;;;;;;;6.15;51.89;95046.97;1807747;79;21125;-59
2021/04/10 07:09:39;;;;;;;60.00;29.40;;;;;;;6.29;51.64;95052.81;1807756;78;21152;-59
2021/04/10 07:12:09;;;;;;;63.58;32.08;;;;;;;6.47;51.44;95053.33;1807792;79;21085;-59
2021/04/10 07:14:38;;;;;;;51.30;23.50;;;;;;;6.71;51.17;95050.83;1807845;79;21530;-59
2021/04/10 07:17:08;;;;;;;29.27;16.60;;;;;;;6.99;50.45;95043.52;1807774;79;21137;-58
2021/04/10 07:19:38;;;;;;;16.35;11.12;;;;;;;7.30;49.55;95042.38;1807762;78;21128;-58
2021/04/10 07:22:08;;;;;;;26.37;15.88;;;;;;;7.59;47.80;95041.24;1807748;78;21192;-58
2021/04/10 07:24:49;;;;;;;29.10;17.12;;;;;;;7.79;46.96;95040.06;1807843;78;21141;-58
2021/04/10 07:27:24;;;;;;;35.33;15.48;;;;;;;7.94;46.53;95039.17;1807909;79;21117;-58
2021/04/10 07:29:54;;;;;;;28.67;14.73;;;;;;;8.04;46.37;95041.69;1807823;79;21272;-58
2021/04/10 07:32:32;;;;;;;23.45;15.23;;;;;;;8.07;46.09;95034.59;1807695;79;21104;-58
2021/04/10 07:35:11;;;;;;;24.55;13.55;;;;;;;8.15;45.63;95031.28;1807855;78;21470;-59
2021/04/10 07:37:51;;;;;;;30.62;18.60;;;;;;;8.29;45.51;95035.09;1807097;79;21132;-58
2021/04/10 07:40:28;;;;;;;27.95;16.93;;;;;;;8.52;44.99;95032.24;1807824;78;21093;-60
2021/04/10 07:43:02;;;;;;;40.12;17.55;;;;;;;8.80;44.64;95021.96;1807757;79;21426;-59
2021/04/10 07:45:33;;;;;;;31.00;14.83;;;;;;;9.01;43.87;95024.96;1807753;79;21089;-60
2021/04/10 07:48:08;;;;;;;22.48;13.48;;;;;;;9.12;43.66;95026.06;1807822;79;21483;-59
2021/04/10 07:50:38;;;;;;;18.87;11.97;;;;;;;9.19;42.83;95024.50;1807769;79;21160;-61
2021/04/10 07:53:26;;;;;;;28.07;12.40;;;;;;;9.32;42.07;95016.52;1807771;79;21125;-58
2021/04/10 07:55:57;;;;;;;31.05;12.88;;;;;;;9.47;41.56;95012.79;1807728;79;21196;-59
2021/04/10 07:58:37;;;;;;;25.77;14.03;;;;;;;9.54;40.98;95009.84;1807821;79;21073;-57
2021/04/10 08:01:08;;;;;;;21.37;11.97;;;;;;;9.63;41.01;95014.13;1808053;79;21120;-57
2021/04/10 08:03:42;;;;;;;21.45;10.18;;;;;;;9.72;40.06;95012.28;1807834;78;21129;-58
2021/04/10 08:06:13;;;;;;;38.63;11.90;;;;;;;9.79;39.80;95010.70;1807955;79;21081;-58
2021/04/10 08:08:46;;;;;;;16.27;9.10;;;;;;;9.89;39.58;95001.98;1807891;79;21270;-59
2021/04/10 08:11:14;;;;;;;19.82;11.20;;;;;;;10.00;38.92;95000.47;1807753;79;21166;-59
2021/04/10 08:14:03;;;;;;;24.80;10.98;;;;;;;10.12;39.32;95003.89;1807686;79;21089;-58
2021/04/10 08:16:31;;;;;;;25.68;9.08;;;;;;;10.29;38.85;94993.56;1771418;79;21172;-62
2021/04/10 08:19:00;;;;;;;25.15;8.08;;;;;;;10.47;38.10;94990.45;1807825;79;21141;-59
2021/04/10 08:21:37;;;;;;;25.72;8.78;;;;;;;10.59;37.39;94988.90;1807758;79;21121;-58
2021/04/10 08:24:33;;;;;;;12.53;6.83;;;;;;;10.67;36.75;94986.08;1807731;79;21109;-58
2021/04/10 08:27:14;;;;;;;35.35;7.95;;;;;;;10.80;36.52;94977.99;1807781;79;21065;-57
2021/04/10 08:29:43;;;;;;;15.95;8.53;;;;;;;10.90;36.04;94980.98;1807754;79;21093;-60
2021/04/10 08:32:12;;;;;;;20.20;12.23;;;;;;;10.96;36.56;94977.23;1807764;79;21133;-60
2021/04/10 08:34:40;;;;;;;10.50;7.33;;;;;;;11.09;35.88;94984.88;1807717;78;21354;-58
2021/04/10 08:37:09;;;;;;;12.47;7.25;;;;;;;11.20;35.80;94981.13;1807625;78;21142;-59
2021/04/10 08:39:41;;;;;;;34.88;8.23;;;;;;;11.25;35.59;94980.59;1807754;79;21144;-59
2021/04/10 08:42:12;;;;;;;11.18;6.85;;;;;;;11.34;35.54;94979.28;1807922;79;21121;-57
2021/04/10 08:44:41;;;;;;;16.30;7.83;;;;;;;11.51;35.04;94974.39;1807782;79;21045;-57
2021/04/10 08:47:09;;;;;;;9.50;7.22;;;;;;;11.64;35.38;94976.48;1807843;79;22249;-57
2021/04/10 08:49:41;;;;;;;14.85;7.22;;;;;;;11.76;34.47;94970.16;1778876;79;21564;-57
2021/04/10 08:52:12;;;;;;;24.67;8.63;;;;;;;11.85;34.97;94973.75;1807850;79;21136;-59
2021/04/10 08:54:42;;;;;;;30.55;8.93;;;;;;;12.01;34.92;94970.00;1807765;79;21057;-60
2021/04/10 08:57:14;;;;;;;13.58;6.12;;;;;;;12.11;34.12;94968.85;1807763;78;21096;-58
2021/04/10 08:59:47;;;;;;;14.98;7.83;;;;;;;12.13;34.17;94967.19;1807772;79;21216;-57
2021/04/10 09:02:19;;;;;;;15.53;8.00;;;;;;;12.16;34.32;94964.13;1807612;78;21156;-57
2021/04/10 09:05:00;;;;;;;15.03;7.58;;;;;;;12.19;33.90;94965.38;1807748;79;21140;-58
2021/04/10 09:07:50;;;;;;;20.10;9.65;;;;;;;12.24;34.21;94969.55;1807730;79;21141;-59
2021/04/10 09:10:30;;;;;;;13.18;7.10;;;;;;;12.33;34.03;94964.84;1807715;79;21144;-58
2021/04/10 09:13:16;;;;;;;21.48;8.15;;;;;;;12.45;34.50;94959.81;1807770;79;21374;-61
2021/04/10 09:15:45;;;;;;;16.57;7.83;;;;;;;12.58;33.80;94961.88;1813486;79;21068;-60
2021/04/10 09:18:15;;;;;;;16.97;7.53;;;;;;;12.65;33.29;94964.34;1813426;79;21077;-57
2021/04/10 09:20:52;;;;;;;21.65;8.00;;;;;;;12.66;33.79;94967.25;1813372;79;21143;-58
2021/04/10 09:23:31;;;;;;;17.45;6.90;;;;;;;12.70;32.46;94959.62;1813201;79;21120;-59
2021/04/10 09:26:16;;;;;;;23.83;10.15;;;;;;;12.65;32.81;94949.94;1813471;79;21205;-60
2021/04/10 09:29:08;;;;;;;13.45;7.00;;;;;;;12.69;33.26;94947.80;1813436;79;21073;-59
2021/04/10 09:31:49;;;;;;;14.25;6.67;;;;;;;12.82;33.25;94938.80;1813651;79;21526;-60
2021/04/10 09:34:57;;;;;;;9.40;6.50;;;;;;;12.99;33.05;94937.93;1813321;77;21164;-59
2021/04/10 09:37:31;;;;;;;6.85;5.80;;;;;;;13.17;32.48;94937.95;1813353;79;21217;-59
2021/04/10 09:40:09;;;;;;;14.83;7.08;;;;;;;13.37;32.48;94941.04;1813563;79;21191;-57
2021/04/10 09:45:19;;;;;;;26.45;7.92;;;;;;;13.75;31.80;94944.88;1813447;79;21069;-59
2021/04/10 09:48:02;;;;;;;9.65;6.42;;;;;;;13.90;31.46;94931.19;1813429;79;21552;-59
2021/04/10 09:50:55;;;;;;;9.60;6.40;;;;;;;14.08;31.02;94933.91;1813474;79;21522;-59
2021/04/10 09:53:26;;;;;;;8.78;5.28;;;;;;;14.23;30.45;94942.53;1813379;79;21081;-59
2021/04/10 09:56:07;;;;;;;12.93;5.92;;;;;;;14.33;30.21;94941.25;1813355;79;21093;-62
2021/04/10 09:58:42;;;;;;;13.00;5.95;;;;;;;14.42;30.27;94938.47;1813480;78;21763;-58
2021/04/10 10:01:14;;;;;;;12.47;6.12;;;;;;;14.61;30.34;94936.53;1812948;78;21562;-59
2021/04/10 10:03:42;;;;;;;10.93;6.33;;;;;;;15.04;29.00;94920.75;1813590;79;21072;-57
2021/04/10 10:06:27;;;;;;;24.30;7.22;;;;;;;15.04;29.00;94920.75;1813429;79;21342;-59
2021/04/10 10:08:55;;;;;;;15.18;5.53;;;;;;;15.12;30.24;94930.26;1813356;79;21156;-62
2021/04/10 10:11:23;;;;;;;13.80;5.65;;;;;;;15.29;28.79;94920.92;1813481;79;21061;-62
2021/04/10 10:13:55;;;;;;;14.45;5.85;;;;;;;15.41;28.59;94920.70;1785464;79;21062;-58
2021/04/10 10:16:28;;;;;;;12.05;5.87;;;;;;;15.65;29.27;94911.72;1807738;79;21517;-60
2021/04/10 10:18:58;;;;;;;11.20;5.42;;;;;;;15.97;28.78;94921.91;1807711;79;21120;-59
2021/04/10 10:21:30;;;;;;;18.87;5.70;;;;;;;16.28;27.62;94918.02;1807593;78;21194;-62
2021/04/10 10:24:00;;;;;;;42.05;8.13;;;;;;;16.49;27.61;94919.66;1807791;79;21105;-61
2021/04/10 10:26:33;;;;;;;15.45;5.72;;;;;;;16.78;27.36;94921.00;1807701;79;21156;-59
2021/04/10 10:29:04;;;;;;;16.00;7.28;;;;;;;17.13;26.76;94924.55;1807744;79;21063;-61
2021/04/10 10:31:42;;;;;;;14.58;5.95;;;;;;;17.46;25.75;94914.64;1807670;78;21182;-58
2021/04/10 10:34:13;;;;;;;15.68;5.45;;;;;;;17.73;25.83;94919.00;1807123;78;21181;-59
2021/04/10 10:36:43;;;;;;;7.20;4.47;;;;;;;18.08;25.56;94919.64;1807951;79;21061;-58
2021/04/10 10:39:35;;;;;;;17.12;6.72;;;;;;;18.35;24.39;94917.92;1807931;79;21510;-58
2021/04/10 10:42:09;;;;;;;10.15;5.03;;;;;;;18.57;24.47;94927.86;1808092;78;21506;-58
2021/04/10 10:44:36;;;;;;;8.33;4.75;;;;;;;18.66;24.18;94924.14;1807629;78;22582;-58
2021/04/10 10:47:08;;;;;;;14.23;5.87;;;;;;;18.63;24.23;94917.52;1807827;79;21172;-60
2021/04/10 10:49:36;;;;;;;18.30;5.47;;;;;;;18.79;24.56;94923.10;1807875;79;21208;-61
2021/04/10 10:52:15;;;;;;;14.43;4.62;;;;;;;19.08;23.49;94912.40;1807870;79;21176;-61
2021/04/10 10:54:46;;;;;;;9.33;5.00;;;;;;;19.26;23.34;94909.23;1807846;79;21124;-61
2021/04/10 10:57:17;;;;;;;9.83;4.50;;;;;;;19.38;23.22;94916.39;1807962;78;23589;-60
2021/04/10 10:59:47;;;;;;;22.77;6.08;;;;;;;19.56;23.09;94918.01;1804880;79;21180;-61
2021/04/10 11:02:20;;;;;;;10.85;4.58;;;;;;;19.83;23.31;94914.55;1807906;78;21132;-58
2021/04/10 11:04:48;;;;;;;12.95;5.03;;;;;;;20.18;22.67;94916.45;1807849;78;21537;-59
2021/04/10 11:07:22;;;;;;;14.68;4.50;;;;;;;20.38;22.86;94911.28;1807817;78;21148;-61
2021/04/10 11:09:53;;;;;;;6.92;3.95;;;;;;;20.58;22.13;94920.83;1780545;79;21289;-62
2021/04/10 11:12:22;;;;;;;14.70;4.72;;;;;;;20.81;21.53;94918.93;1807767;79;21104;-61
2021/04/10 11:14:58;;;;;;;7.83;4.25;;;;;;;20.88;21.28;94914.86;1742613;79;21081;-61
2021/04/10 11:17:32;;;;;;;9.38;3.75;;;;;;;21.12;21.21;94927.70;1792543;79;21600;-61
2021/04/10 11:20:03;;;;;;;;;;;;;;;21.41;21.45;94919.50;1819246;79;21058;-61
2021/04/10 11:22:31;;;;;;;20.62;4.50;;;;;;;21.57;20.83;94911.69;1792099;79;21055;-62
2021/04/10 11:25:01;;;;;;;11.95;4.92;;;;;;;21.71;21.46;94909.25;1792015;79;21113;-63
2021/04/10 11:27:35;;;;;;;14.40;5.22;;;;;;;21.98;20.21;94914.61;1816386;79;21100;-60
2021/04/10 11:30:11;;;;;;;13.45;6.28;;;;;;;21.95;20.48;94910.02;1816109;78;21081;-59
2021/04/10 11:32:44;;;;;;;13.68;5.42;;;;;;;21.94;20.02;94909.27;1816174;78;21052;-60
2021/04/10 11:35:27;;;;;;;12.53;4.72;;;;;;;21.80;20.78;94912.40;1815873;77;21346;-59
2021/04/10 11:38:05;;;;;;;5.47;3.30;;;;;;;21.97;20.20;94908.86;1816293;79;21069;-61
2021/04/10 11:40:34;;;;;;;9.33;4.72;;;;;;;22.12;20.05;94910.81;1816358;79;21172;-61
2021/04/10 11:43:06;;;;;;;12.55;4.15;;;;;;;22.27;19.87;94909.09;1816418;79;21490;-59